Terminal Aerodrome Forecast
Issued by NWS Northern Indiana

Home | Current Version | Previous Version | Text Only | Print | Product List | Glossary On
Versions: 1 2 3 4 5 6 7 8 9 10 11 12 13 14
000
FTUS43 KIWX 260300 AAA
TAFFWA
TAF AMD
KFWA 260303Z 2603/2624 04014KT P6SM OVC050
      TEMPO 2603/2605 5SM -SN
     FM260600 03012G19KT P6SM BKN050
     FM260900 02010KT P6SM SCT050
     FM261400 35008KT P6SM SCT250=

USA.gov is the U.S. government's official web portal to all federal, state and local government web resources and services.